Time;durP1;ratioP1;P1;durP2;ratioP2;P2;SDS_P1;SDS_P2;PMS_P1;PMS_P2;Temp;Humidity;BMP_temperature;BMP_pressure;BME280_temperature;BME280_humidity;BME280_pressure;Samples;Min_cycle;Max_cycle;Signal;HPM_P1;HPM_P2
2022/09/01 00:00:52;;;;;;;20.63;4.13;;;28.40;99.90;;;;;;5015493;23;20092;-54
2022/09/01 00:03:22;;;;;;;23.67;6.20;;;28.40;99.90;;;;;;5013924;28;20489;-54
2022/09/01 00:05:54;;;;;;;20.77;4.72;;;28.40;99.90;;;;;;5013877;28;20046;-54
2022/09/01 00:08:20;;;;;;;21.15;4.80;;;28.30;99.90;;;;;;5013851;28;20398;-54
2022/09/01 00:10:46;;;;;;;26.95;6.32;;;28.30;99.90;;;;;;5013826;28;20058;-53
2022/09/01 00:13:12;;;;;;;23.45;4.82;;;28.30;99.90;;;;;;5012640;28;20069;-53
2022/09/01 00:15:38;;;;;;;26.80;5.40;;;28.20;99.90;;;;;;5012599;28;20033;-53
2022/09/01 00:18:04;;;;;;;18.02;4.72;;;28.20;99.90;;;;;;5013770;28;20026;-52
2022/09/01 00:20:30;;;;;;;30.17;5.03;;;28.20;99.90;;;;;;5013846;28;20030;-53
2022/09/01 00:22:56;;;;;;;26.83;4.97;;;28.10;99.90;;;;;;5012297;28;20042;-53
2022/09/01 00:25:23;;;;;;;27.83;5.53;;;28.10;99.90;;;;;;5013418;28;20042;-53
2022/09/01 00:27:50;;;;;;;21.55;5.13;;;28.10;99.90;;;;;;5013726;28;20478;-53
2022/09/01 00:30:17;;;;;;;36.03;5.90;;;28.10;99.90;;;;;;5013664;28;20038;-53
2022/09/01 00:32:45;;;;;;;24.13;5.47;;;28.10;99.90;;;;;;5013303;28;20032;-52
2022/09/01 00:35:13;;;;;;;38.17;6.18;;;28.10;99.90;;;;;;4996292;28;20026;-54
2022/09/01 00:37:39;;;;;;;27.63;7.60;;;28.10;99.90;;;;;;5013425;28;20080;-53
2022/09/01 00:40:06;;;;;;;29.05;5.95;;;28.10;99.90;;;;;;5013192;28;20517;-52
2022/09/01 00:42:32;;;;;;;19.67;5.97;;;28.10;99.90;;;;;;5013268;28;20021;-53
2022/09/01 00:44:57;;;;;;;18.08;4.13;;;28.10;99.90;;;;;;5012986;28;20048;-51
2022/09/01 00:47:23;;;;;;;21.20;5.38;;;28.10;99.90;;;;;;5013083;28;20034;-51
2022/09/01 00:49:51;;;;;;;38.60;6.63;;;28.10;99.90;;;;;;5013420;28;20018;-51
2022/09/01 00:52:19;;;;;;;;;;;28.10;99.90;;;;;;5012251;28;20068;-52
2022/09/01 00:54:50;;;;;;;28.70;5.80;;;28.10;99.90;;;;;;5012986;28;19905;-51
2022/09/01 00:57:16;;;;;;;28.45;5.22;;;28.00;99.90;;;;;;5012771;28;20551;-51
2022/09/01 00:59:56;;;;;;;28.00;5.05;;;28.00;99.90;;;;;;5013380;28;20504;-51
2022/09/01 01:02:22;;;;;;;33.40;6.78;;;28.00;99.90;;;;;;5012921;28;20033;-51
2022/09/01 01:04:48;;;;;;;30.05;6.90;;;28.00;99.90;;;;;;5012704;28;20149;-51
2022/09/01 01:07:15;;;;;;;35.70;6.85;;;28.00;99.90;;;;;;5011441;28;20148;-51
2022/09/01 01:09:44;;;;;;;32.58;8.20;;;28.00;99.90;;;;;;5012032;28;20030;-51
2022/09/01 01:12:17;;;;;;;31.75;9.48;;;28.00;99.90;;;;;;5012298;28;20022;-53
2022/09/01 01:14:44;;;;;;;35.90;6.70;;;28.00;99.90;;;;;;5012772;28;20025;-53
2022/09/01 01:17:10;;;;;;;36.28;6.93;;;28.00;99.90;;;;;;5012742;28;20332;-52
2022/09/01 01:23:04;;;;;;;20.75;4.82;;;28.00;99.90;;;;;;5012766;28;20052;-51
2022/09/01 01:25:43;;;;;;;37.10;8.23;;;28.00;99.90;;;;;;5012353;28;20041;-52
2022/09/01 01:28:09;;;;;;;27.65;6.65;;;28.00;99.90;;;;;;5012356;28;20101;-51
2022/09/01 01:30:38;;;;;;;37.63;7.05;;;28.00;99.90;;;;;;5012349;28;20026;-52
2022/09/01 01:33:05;;;;;;;28.63;5.55;;;28.00;99.90;;;;;;5012318;28;20026;-51
2022/09/01 01:35:32;;;;;;;30.55;5.47;;;28.00;99.90;;;;;;5012349;28;20014;-52
2022/09/01 01:37:59;;;;;;;26.73;5.35;;;28.00;99.90;;;;;;5010878;28;20401;-53
2022/09/01 01:40:27;;;;;;;41.72;7.35;;;28.00;99.90;;;;;;5012309;28;20029;-53
2022/09/01 01:42:54;;;;;;;28.13;6.72;;;28.00;99.90;;;;;;5012455;28;20034;-53
2022/09/01 01:45:22;;;;;;;20.23;5.78;;;28.00;99.90;;;;;;5012247;28;20040;-53
2022/09/01 01:47:51;;;;;;;31.20;7.10;;;28.00;99.90;;;;;;5012175;28;20052;-53
2022/09/01 01:50:22;;;;;;;27.23;5.25;;;28.00;99.90;;;;;;5012069;28;20406;-52
2022/09/01 01:52:48;;;;;;;30.35;6.28;;;28.00;99.90;;;;;;5011873;28;20030;-52
2022/09/01 01:55:18;;;;;;;27.80;5.70;;;28.00;99.90;;;;;;5012087;28;20060;-52
2022/09/01 01:57:48;;;;;;;27.13;6.75;;;28.00;99.90;;;;;;5012014;28;20088;-52
2022/09/01 02:00:20;;;;;;;42.28;6.90;;;28.00;99.90;;;;;;5012253;28;20579;-53
2022/09/01 02:02:51;;;;;;;35.35;5.88;;;28.00;99.90;;;;;;5011858;28;20026;-52
2022/09/01 02:05:20;;;;;;;24.77;5.35;;;28.00;99.90;;;;;;5011731;28;20872;-52
2022/09/01 02:07:47;;;;;;;32.85;6.25;;;28.00;99.90;;;;;;5010561;28;20413;-55
2022/09/01 02:10:13;;;;;;;31.17;6.03;;;28.00;99.90;;;;;;5011600;28;20026;-52
2022/09/01 02:12:40;;;;;;;28.27;6.28;;;28.00;99.90;;;;;;5010357;28;20121;-52
2022/09/01 02:15:07;;;;;;;25.23;7.20;;;28.00;99.90;;;;;;5011553;28;20033;-52
2022/09/01 02:17:33;;;;;;;24.58;5.68;;;28.00;99.90;;;;;;5011656;28;20245;-52
2022/09/01 02:19:58;;;;;;;32.28;6.65;;;28.00;99.90;;;;;;5011684;28;20045;-52
2022/09/01 02:22:24;;;;;;;28.38;6.85;;;27.90;99.90;;;;;;5011499;28;20026;-53
2022/09/01 02:24:52;;;;;;;33.50;5.35;;;27.80;99.90;;;;;;5011516;28;20034;-52
2022/09/01 02:27:23;;;;;;;27.15;5.88;;;27.80;99.90;;;;;;5011509;28;20037;-53
2022/09/01 02:29:53;;;;;;;43.40;7.70;;;27.80;99.90;;;;;;5011511;28;20083;-50
2022/09/01 02:32:20;;;;;;;23.40;5.47;;;27.80;99.90;;;;;;5011463;28;20072;-52
2022/09/01 02:34:52;;;;;;;35.63;6.47;;;27.80;99.90;;;;;;5011415;28;20037;-51
2022/09/01 02:37:24;;;;;;;30.38;6.18;;;27.80;99.90;;;;;;5011340;28;20112;-51
2022/09/01 02:39:56;;;;;;;29.27;5.47;;;27.70;99.90;;;;;;5011360;28;20026;-51
2022/09/01 02:42:26;;;;;;;37.83;6.32;;;27.80;99.90;;;;;;5011294;28;20110;-51
2022/09/01 02:44:55;;;;;;;28.15;7.32;;;27.70;99.90;;;;;;5011243;28;20033;-51
2022/09/01 02:47:22;;;;;;;33.47;6.32;;;27.70;99.90;;;;;;5011320;28;20026;-51
2022/09/01 02:49:50;;;;;;;31.33;6.72;;;27.70;99.90;;;;;;5011353;28;20402;-53
2022/09/01 02:52:19;;;;;;;43.40;6.97;;;27.70;99.90;;;;;;5011310;28;20018;-52
2022/09/01 02:54:47;;;;;;;25.98;5.68;;;27.60;99.90;;;;;;5011301;28;20030;-52
2022/09/01 02:57:14;;;;;;;32.47;6.07;;;27.60;99.90;;;;;;5011176;28;20030;-52
2022/09/01 02:59:41;;;;;;;28.55;5.68;;;27.60;99.90;;;;;;5011609;28;20038;-51
2022/09/01 03:02:08;;;;;;;35.35;6.30;;;27.60;99.90;;;;;;5011266;28;20123;-53
2022/09/01 03:04:35;;;;;;;38.15;5.53;;;27.60;99.90;;;;;;5010995;28;20486;-52
2022/09/01 03:07:05;;;;;;;34.85;6.38;;;27.50;99.90;;;;;;5011234;28;20034;-52
2022/09/01 03:09:34;;;;;;;31.00;5.65;;;27.50;99.90;;;;;;5011108;28;20022;-52
2022/09/01 03:12:00;;;;;;;35.25;6.45;;;27.40;99.90;;;;;;5011216;28;20030;-53
2022/09/01 03:14:26;;;;;;;28.45;6.45;;;27.40;99.90;;;;;;5011240;28;20026;-52
2022/09/01 03:16:52;;;;;;;34.22;6.18;;;27.40;99.90;;;;;;5011182;28;20076;-54
2022/09/01 03:19:18;;;;;;;41.10;6.80;;;27.30;99.90;;;;;;5011070;28;20076;-53
2022/09/01 03:21:45;;;;;;;35.35;7.95;;;27.30;99.90;;;;;;5011176;28;20049;-53
2022/09/01 03:24:15;;;;;;;30.73;5.68;;;27.30;99.90;;;;;;5011074;28;20025;-53
2022/09/01 03:26:42;;;;;;;32.78;5.93;;;27.30;99.90;;;;;;5011072;28;20036;-52
2022/09/01 03:29:08;;;;;;;33.40;7.50;;;27.30;99.90;;;;;;5011114;28;20030;-54
2022/09/01 03:31:35;;;;;;;36.28;6.38;;;27.30;99.90;;;;;;5011030;28;20133;-52
2022/09/01 03:34:02;;;;;;;47.95;7.30;;;27.20;99.90;;;;;;5012591;28;20026;-53
2022/09/01 03:36:29;;;;;;;29.92;7.07;;;27.20;99.90;;;;;;5014724;28;20057;-53
2022/09/01 03:38:56;;;;;;;29.05;6.28;;;27.10;99.90;;;;;;5014564;28;20493;-52
2022/09/01 03:41:27;;;;;;;37.50;5.85;;;27.10;99.90;;;;;;5014406;28;20050;-54
2022/09/01 03:43:59;;;;;;;31.23;6.28;;;27.10;99.90;;;;;;5014213;28;20573;-55
2022/09/01 03:46:26;;;;;;;30.38;6.15;;;27.10;99.90;;;;;;5014136;28;20034;-53
2022/09/01 03:48:57;;;;;;;27.77;4.97;;;27.10;99.90;;;;;;5014426;28;20485;-53
2022/09/01 03:51:24;;;;;;;31.33;6.30;;;27.00;99.90;;;;;;5014179;28;20056;-54
2022/09/01 03:53:53;;;;;;;26.15;4.95;;;27.00;99.90;;;;;;5014198;28;20014;-54
2022/09/01 03:56:20;;;;;;;44.75;6.65;;;27.00;99.90;;;;;;5014231;28;20029;-54
2022/09/01 03:58:46;;;;;;;32.00;6.95;;;27.00;99.90;;;;;;5014115;28;20071;-54
2022/09/01 04:01:12;;;;;;;31.33;5.35;;;27.00;99.90;;;;;;4996469;23;20495;-49
2022/09/01 04:03:40;;;;;;;27.55;5.95;;;27.00;99.90;;;;;;4974969;28;20038;-48
2022/09/01 04:06:08;;;;;;;27.67;5.72;;;27.00;99.90;;;;;;4973727;28;20089;-49
2022/09/01 04:08:35;;;;;;;32.00;5.70;;;27.00;99.90;;;;;;4974748;28;20364;-49
2022/09/01 04:11:04;;;;;;;27.85;6.15;;;27.00;99.90;;;;;;4975168;28;20031;-49
2022/09/01 04:13:34;;;;;;;29.00;6.63;;;27.00;99.90;;;;;;4975068;28;20023;-49
2022/09/01 04:16:00;;;;;;;25.20;6.15;;;27.00;99.90;;;;;;4974691;28;20034;-49
2022/09/01 04:18:26;;;;;;;34.95;5.80;;;27.00;99.90;;;;;;4974750;28;20043;-49
2022/09/01 04:20:58;;;;;;;27.65;5.63;;;26.90;99.90;;;;;;4974544;28;20109;-49
2022/09/01 04:23:29;;;;;;;26.88;5.20;;;26.90;99.90;;;;;;4974544;28;20491;-50
2022/09/01 04:25:59;;;;;;;30.60;5.35;;;26.90;99.90;;;;;;4974310;28;20130;-49
2022/09/01 04:28:33;;;;;;;28.80;5.40;;;26.90;99.90;;;;;;4974581;28;20110;-49
2022/09/01 04:31:04;;;;;;;23.15;4.60;;;26.90;99.90;;;;;;4974302;28;20037;-49
2022/09/01 04:33:37;;;;;;;24.58;4.60;;;26.90;99.90;;;;;;4974738;28;20034;-49
2022/09/01 04:36:22;;;;;;;24.35;6.53;;;26.90;99.90;;;;;;4974516;28;20089;-49
2022/09/01 04:38:53;;;;;;;33.72;6.50;;;26.90;99.90;;;;;;4974199;28;20027;-49
2022/09/01 04:41:20;;;;;;;26.70;5.82;;;26.90;99.90;;;;;;4974224;28;20451;-49
2022/09/01 04:43:48;;;;;;;30.98;6.90;;;26.80;99.90;;;;;;4974118;28;20402;-49
2022/09/01 04:46:15;;;;;;;34.28;6.05;;;26.90;99.90;;;;;;4973997;28;20049;-49
2022/09/01 04:48:43;;;;;;;25.92;5.45;;;26.90;99.90;;;;;;4974051;28;20027;-49
2022/09/01 04:51:11;;;;;;;23.77;6.20;;;26.80;99.90;;;;;;4974128;28;20026;-49
2022/09/01 04:53:38;;;;;;;32.83;6.00;;;26.80;99.90;;;;;;4972802;28;20029;-49
2022/09/01 04:56:06;;;;;;;31.55;5.95;;;26.90;99.90;;;;;;4974247;28;20487;-49
2022/09/01 04:58:32;;;;;;;28.45;6.30;;;27.00;99.90;;;;;;4972982;28;20114;-48
2022/09/01 05:00:59;;;;;;;45.45;5.70;;;27.10;99.90;;;;;;4972680;28;20047;-49
2022/09/01 05:03:25;;;;;;;22.95;5.38;;;27.20;99.90;;;;;;4973782;28;20031;-49
2022/09/01 05:05:52;;;;;;;20.43;4.90;;;27.40;99.90;;;;;;4973903;28;20066;-49
2022/09/01 05:08:22;;;;;;;22.45;4.53;;;27.50;99.90;;;;;;4973777;28;20131;-50
2022/09/01 05:10:52;;;;;;;23.17;4.53;;;27.60;99.90;;;;;;4973707;28;20085;-49
2022/09/01 05:13:21;;;;;;;20.83;5.00;;;27.70;99.90;;;;;;4973800;28;20106;-50
2022/09/01 05:16:00;;;;;;;21.02;4.40;;;27.80;99.90;;;;;;4973626;28;20031;-50
2022/09/01 05:18:27;;;;;;;25.58;5.78;;;27.90;99.90;;;;;;4973628;28;20034;-50
2022/09/01 05:20:53;;;;;;;23.77;5.13;;;28.00;99.90;;;;;;4973456;28;20035;-49
2022/09/01 05:23:20;;;;;;;20.75;5.03;;;28.00;99.90;;;;;;4973709;28;20099;-49
2022/09/01 05:25:50;;;;;;;22.07;4.83;;;28.10;99.90;;;;;;4973291;28;20049;-49
2022/09/01 05:28:17;;;;;;;19.23;4.20;;;28.10;99.90;;;;;;4973384;28;20031;-49
2022/09/01 05:30:46;;;;;;;23.30;6.13;;;28.20;99.90;;;;;;4973350;28;20106;-49
2022/09/01 05:33:15;;;;;;;22.02;5.35;;;28.20;99.90;;;;;;4973131;28;20014;-49
2022/09/01 05:35:54;;;;;;;17.95;3.78;;;28.30;99.90;;;;;;4973105;28;20023;-49
2022/09/01 05:38:20;;;;;;;18.02;4.47;;;28.30;99.90;;;;;;4973116;28;20501;-49
2022/09/01 05:40:58;;;;;;;14.88;3.83;;;28.30;99.90;;;;;;4972963;28;20034;-49
2022/09/01 05:43:26;;;;;;;23.05;5.22;;;28.40;99.90;;;;;;4972954;28;20021;-50
2022/09/01 05:45:53;;;;;;;20.00;4.88;;;28.40;99.90;;;;;;4972861;28;20041;-49
2022/09/01 05:48:20;;;;;;;25.10;5.30;;;28.40;99.90;;;;;;4973089;28;20051;-49
2022/09/01 05:50:48;;;;;;;19.33;4.38;;;28.50;99.90;;;;;;4972764;28;20057;-49
2022/09/01 05:53:16;;;;;;;18.13;4.95;;;28.50;99.90;;;;;;4971526;28;20477;-49
2022/09/01 05:55:45;;;;;;;25.77;4.88;;;28.50;99.90;;;;;;4972505;28;20035;-50
2022/09/01 05:58:13;;;;;;;24.27;5.28;;;28.50;99.90;;;;;;4972483;28;20127;-49
2022/09/01 06:00:41;;;;;;;22.13;5.88;;;28.60;99.90;;;;;;4972755;28;20089;-50
2022/09/01 06:03:08;;;;;;;21.80;5.05;;;28.60;99.90;;;;;;4972916;28;20023;-49
2022/09/01 06:05:38;;;;;;;26.70;4.83;;;28.60;99.90;;;;;;4972762;28;20073;-50
2022/09/01 06:08:07;;;;;;;20.90;4.80;;;28.60;99.90;;;;;;4972678;28;20268;-49
2022/09/01 06:10:36;;;;;;;25.02;6.45;;;28.60;99.90;;;;;;4972714;28;20030;-50
2022/09/01 06:13:02;;;;;;;20.35;5.70;;;28.60;99.90;;;;;;4972633;28;20034;-50
2022/09/01 06:15:31;;;;;;;27.67;4.95;;;28.70;99.90;;;;;;4972670;28;20022;-49
2022/09/01 06:17:57;;;;;;;25.83;6.07;;;28.70;99.90;;;;;;4972651;28;20038;-50
2022/09/01 06:20:23;;;;;;;19.30;4.82;;;28.70;99.90;;;;;;4971366;28;20082;-49
2022/09/01 06:22:52;;;;;;;20.80;5.15;;;28.70;99.90;;;;;;4972524;28;20022;-49
2022/09/01 06:25:19;;;;;;;21.05;6.10;;;28.70;99.90;;;;;;4972382;28;20035;-49
2022/09/01 06:27:46;;;;;;;22.02;4.90;;;28.70;99.90;;;;;;4972521;28;20557;-49
2022/09/01 06:30:19;;;;;;;19.95;5.25;;;28.70;99.90;;;;;;4972466;28;20174;-49
2022/09/01 06:32:46;;;;;;;20.77;4.55;;;28.70;99.90;;;;;;4972191;28;20031;-48
2022/09/01 06:35:15;;;;;;;25.40;4.90;;;28.80;99.90;;;;;;4972575;28;20403;-49
2022/09/01 06:37:44;;;;;;;19.25;4.75;;;28.80;99.90;;;;;;4972696;28;20023;-50
2022/09/01 06:40:16;;;;;;;18.83;5.43;;;28.80;99.90;;;;;;4972632;28;20039;-50
2022/09/01 06:42:47;;;;;;;23.67;5.00;;;28.80;99.90;;;;;;4972238;28;20038;-49
2022/09/01 06:45:14;;;;;;;20.70;5.15;;;28.80;99.90;;;;;;4972229;28;20039;-49
2022/09/01 06:47:46;;;;;;;27.02;5.88;;;28.80;99.90;;;;;;4972535;28;20497;-51
2022/09/01 06:50:15;;;;;;;25.17;6.18;;;28.80;99.90;;;;;;4972467;28;20046;-51
2022/09/01 06:52:44;;;;;;;22.73;5.82;;;28.80;99.90;;;;;;4972368;28;20034;-49
2022/09/01 06:55:11;;;;;;;32.53;6.40;;;28.80;99.90;;;;;;4972361;28;20113;-49
2022/09/01 06:57:37;;;;;;;;;;;28.90;99.90;;;;;;4972783;28;20027;-51
2022/09/01 07:00:16;;;;;;;34.75;6.35;;;28.90;99.90;;;;;;4972034;28;19918;-51
2022/09/01 07:02:43;;;;;;;33.10;7.13;;;28.90;99.90;;;;;;4972482;28;20106;-50
2022/09/01 07:05:09;;;;;;;;;;;28.90;99.90;;;;;;4972608;28;20074;-51
2022/09/01 07:07:36;;;;;;;28.90;6.95;;;28.90;99.90;;;;;;4972202;28;19911;-50
2022/09/01 07:10:03;;;;;;;27.35;5.53;;;28.90;99.90;;;;;;4975120;28;20434;-51
2022/09/01 07:12:29;;;;;;;21.48;5.40;;;28.90;99.90;;;;;;4975906;28;20028;-51
2022/09/01 07:14:57;;;;;;;19.63;6.35;;;28.90;99.90;;;;;;4974441;28;20023;-51
2022/09/01 07:17:24;;;;;;;27.67;6.15;;;28.90;99.90;;;;;;4975837;28;20039;-51
2022/09/01 07:19:50;;;;;;;33.92;6.82;;;28.90;99.90;;;;;;4975703;28;20023;-51
2022/09/01 07:22:16;;;;;;;24.55;4.90;;;28.90;99.90;;;;;;4975552;28;20537;-50
2022/09/01 07:24:42;;;;;;;25.60;5.55;;;28.90;99.90;;;;;;4975704;28;20450;-50
2022/09/01 07:27:09;;;;;;;20.25;5.72;;;29.00;99.90;;;;;;4975544;28;20071;-51
2022/09/01 07:29:35;;;;;;;18.33;5.60;;;28.90;99.90;;;;;;4975510;28;20037;-51
2022/09/01 07:32:01;;;;;;;31.08;6.80;;;29.00;99.90;;;;;;4975686;28;20026;-50
2022/09/01 07:34:27;;;;;;;21.45;5.55;;;29.00;99.90;;;;;;4975384;28;20514;-50
2022/09/01 07:36:55;;;;;;;41.20;7.47;;;29.00;99.90;;;;;;4975320;28;20027;-50
2022/09/01 07:39:21;;;;;;;24.70;6.88;;;29.00;99.90;;;;;;4975366;28;20031;-52
2022/09/01 07:41:47;;;;;;;23.23;5.40;;;29.10;99.90;;;;;;4975505;28;20145;-50
2022/09/01 07:44:13;;;;;;;21.45;6.00;;;29.10;99.90;;;;;;4975382;28;20039;-50
2022/09/01 07:46:40;;;;;;;26.45;6.43;;;29.10;99.90;;;;;;4975280;28;20051;-51
2022/09/01 07:49:07;;;;;;;28.58;5.88;;;29.10;99.90;;;;;;4975118;28;20039;-50
2022/09/01 07:51:33;;;;;;;25.63;6.37;;;29.10;99.90;;;;;;4975139;28;20034;-50
2022/09/01 07:54:01;;;;;;;25.83;5.70;;;29.10;99.90;;;;;;4973960;28;20707;-50
2022/09/01 07:56:29;;;;;;;25.63;6.10;;;29.10;99.90;;;;;;4974871;28;20030;-50
2022/09/01 07:58:56;;;;;;;24.17;7.18;;;29.10;99.90;;;;;;4974968;28;20035;-50
2022/09/01 08:01:24;;;;;;;22.23;5.65;;;29.20;99.90;;;;;;4974815;28;20054;-51
2022/09/01 08:03:54;;;;;;;22.25;6.07;;;29.10;99.90;;;;;;4974875;28;20031;-51
2022/09/01 08:06:23;;;;;;;33.70;6.50;;;29.20;99.90;;;;;;4974997;28;20031;-52
2022/09/01 08:08:50;;;;;;;31.17;6.75;;;29.20;99.90;;;;;;4974949;28;20375;-50
2022/09/01 08:11:27;;;;;;;26.13;5.80;;;29.20;99.90;;;;;;4975006;28;20033;-51
2022/09/01 08:13:54;;;;;;;25.55;5.75;;;29.20;99.90;;;;;;4974778;28;20030;-51
2022/09/01 08:16:21;;;;;;;29.73;5.93;;;29.20;99.90;;;;;;4974816;28;20023;-51
2022/09/01 08:18:47;;;;;;;25.73;6.78;;;29.20;99.90;;;;;;4974404;28;20030;-51
2022/09/01 08:21:14;;;;;;;23.92;5.55;;;29.20;99.90;;;;;;4974249;28;20029;-51
2022/09/01 08:23:40;;;;;;;;;;;29.30;99.90;;;;;;4975036;28;20486;-51
2022/09/01 08:26:09;;;;;;;27.80;5.65;;;29.30;99.90;;;;;;4974396;28;20001;-50
2022/09/01 08:28:35;;;;;;;20.50;6.47;;;29.30;99.90;;;;;;4974333;28;20429;-54
2022/09/01 08:31:05;;;;;;;25.45;5.20;;;29.30;99.90;;;;;;4974533;28;20105;-50
2022/09/01 08:33:33;;;;;;;26.98;5.88;;;29.30;99.90;;;;;;4974375;28;20095;-50
2022/09/01 08:36:00;;;;;;;34.20;6.72;;;29.40;99.90;;;;;;4974286;28;20026;-50
2022/09/01 08:38:26;;;;;;;26.30;5.30;;;29.40;99.90;;;;;;4974278;28;20033;-51
2022/09/01 08:40:56;;;;;;;25.42;5.20;;;29.40;99.90;;;;;;4974254;28;20023;-51
2022/09/01 08:43:30;;;;;;;20.20;4.57;;;29.40;99.90;;;;;;4974194;28;20018;-50
2022/09/01 08:46:11;;;;;;;25.45;6.22;;;29.40;99.90;;;;;;4974105;28;20039;-51
2022/09/01 08:48:45;;;;;;;27.00;6.57;;;29.40;99.90;;;;;;4974048;28;20391;-51
2022/09/01 08:51:29;;;;;;;23.95;5.35;;;29.40;99.90;;;;;;4974061;28;20030;-51
2022/09/01 08:54:03;;;;;;;23.70;4.90;;;29.40;99.90;;;;;;4973983;28;20077;-51
2022/09/01 08:56:31;;;;;;;23.40;5.85;;;29.50;99.90;;;;;;4972630;28;20023;-51
2022/09/01 08:58:57;;;;;;;;;;;29.50;99.90;;;;;;4974332;28;20379;-51
2022/09/01 09:01:54;;;;;;;30.35;5.05;;;29.50;99.90;;;;;;4973789;28;19917;-52
2022/09/01 09:04:46;;;;;;;21.92;4.72;;;29.50;99.90;;;;;;4973758;28;20026;-50
2022/09/01 09:07:39;;;;;;;25.08;5.97;;;29.50;99.90;;;;;;4973778;28;20039;-50
2022/09/01 09:10:20;;;;;;;25.23;6.28;;;29.50;99.90;;;;;;4973774;28;20023;-51
2022/09/01 09:13:00;;;;;;;36.75;5.80;;;29.50;99.90;;;;;;4973899;28;20097;-50
2022/09/01 09:15:45;;;;;;;23.80;5.60;;;29.50;99.90;;;;;;4973446;28;20093;-51
2022/09/01 09:18:26;;;;;;;25.95;5.63;;;29.60;99.90;;;;;;4973513;28;20499;-50
2022/09/01 09:20:52;;;;;;;25.92;4.68;;;29.50;99.90;;;;;;4973388;28;20018;-51
2022/09/01 09:23:33;;;;;;;22.85;6.53;;;29.50;99.90;;;;;;4973653;28;20027;-51
2022/09/01 09:25:58;;;;;;;28.80;6.30;;;29.50;99.90;;;;;;4973419;28;20398;-51
2022/09/01 09:28:25;;;;;;;35.15;7.13;;;29.60;99.90;;;;;;4973394;28;20054;-51
2022/09/01 09:31:49;;;;;;;30.88;5.22;;;29.70;99.90;;;;;;4972595;28;20023;-51
2022/09/01 09:34:29;;;;;;;35.70;5.53;;;29.60;99.90;;;;;;4951565;29;20083;-51
2022/09/01 09:36:55;;;;;;;22.75;5.47;;;29.60;99.90;;;;;;4971000;28;20093;-50
2022/09/01 09:39:20;;;;;;;21.85;5.25;;;29.60;99.90;;;;;;4973237;28;20054;-51
2022/09/01 09:42:13;;;;;;;34.55;6.75;;;29.50;99.90;;;;;;4973320;28;20023;-51
2022/09/01 09:44:51;;;;;;;28.58;5.50;;;29.60;99.90;;;;;;4971835;28;20145;-51
2022/09/01 09:47:54;;;;;;;31.73;6.72;;;29.50;99.90;;;;;;4973181;28;20030;-51
2022/09/01 09:50:42;;;;;;;29.83;5.78;;;29.50;99.90;;;;;;4951364;29;20031;-51
2022/09/01 09:53:16;;;;;;;26.20;5.97;;;29.50;99.90;;;;;;4971955;28;20046;-51
2022/09/01 09:56:03;;;;;;;23.67;7.25;;;29.50;99.90;;;;;;4972718;28;20035;-51
2022/09/01 09:58:36;;;;;;;14.68;4.95;;;29.40;99.90;;;;;;4972895;28;20042;-51
2022/09/01 10:01:06;;;;;;;15.55;5.65;;;29.30;99.90;;;;;;4972683;28;20062;-51
2022/09/01 10:03:51;;;;;;;23.02;8.10;;;29.20;99.90;;;;;;4972775;28;20076;-51
2022/09/01 10:06:39;;;;;;;9.25;3.88;;;29.10;99.90;;;;;;4972921;28;20479;-51
2022/09/01 10:09:16;;;;;;;20.20;3.67;;;29.00;99.90;;;;;;4972602;28;20023;-51
2022/09/01 10:11:54;;;;;;;16.73;3.80;;;28.90;99.90;;;;;;4972666;28;20038;-51
2022/09/01 10:14:24;;;;;;;18.52;3.58;;;28.90;99.90;;;;;;4972800;28;20494;-51
2022/09/01 10:17:00;;;;;;;13.52;3.80;;;28.90;99.90;;;;;;4972824;28;20030;-51
2022/09/01 10:19:29;;;;;;;18.70;4.60;;;28.90;99.90;;;;;;4972624;28;20111;-50
2022/09/01 10:21:55;;;;;;;15.00;4.38;;;28.80;99.90;;;;;;4972396;28;20439;-50
2022/09/01 10:24:32;;;;;;;11.38;3.50;;;28.90;99.90;;;;;;4972643;28;20031;-50
2022/09/01 10:27:23;;;;;;;15.32;3.33;;;28.90;99.90;;;;;;4972387;28;20557;-51
2022/09/01 10:30:15;;;;;;;33.47;12.38;;;29.00;99.90;;;;;;4969936;28;20058;-50
2022/09/01 10:32:47;;;;;;;23.13;6.82;;;29.10;99.90;;;;;;4972217;28;20086;-50
2022/09/01 10:35:28;;;;;;;21.73;6.85;;;29.10;99.90;;;;;;4972303;28;20082;-51
2022/09/01 10:37:56;;;;;;;21.90;6.43;;;29.10;99.90;;;;;;4972165;28;20107;-51
2022/09/01 10:40:27;;;;;;;19.42;6.78;;;29.10;99.90;;;;;;4972668;28;20023;-51
2022/09/01 10:42:58;;;;;;;24.05;6.13;;;29.20;99.90;;;;;;4974149;28;20039;-51
2022/09/01 10:45:41;;;;;;;30.60;6.03;;;29.30;99.90;;;;;;4976402;28;20494;-51
2022/09/01 10:48:19;;;;;;;23.23;6.20;;;29.30;99.90;;;;;;4975096;28;20023;-50
2022/09/01 10:50:47;;;;;;;25.50;5.95;;;29.30;99.90;;;;;;4976219;28;20034;-51
2022/09/01 10:53:32;;;;;;;26.63;6.53;;;29.30;99.90;;;;;;4976185;28;20461;-51
2022/09/01 10:56:16;;;;;;;24.15;5.68;;;29.40;99.90;;;;;;4976145;28;20498;-51
2022/09/01 10:59:06;;;;;;;31.55;5.65;;;29.50;99.90;;;;;;4976046;28;20035;-50
2022/09/01 11:01:43;;;;;;;28.70;5.03;;;29.50;99.90;;;;;;4975918;28;20078;-51
2022/09/01 11:04:12;;;;;;;27.50;6.28;;;29.50;99.90;;;;;;4976021;28;20193;-51
2022/09/01 11:06:40;;;;;;;33.25;6.45;;;29.50;99.90;;;;;;4975954;28;20023;-51
2022/09/01 11:09:24;;;;;;;31.63;6.13;;;29.60;99.90;;;;;;4975817;28;20031;-51
2022/09/01 11:12:15;;;;;;;22.98;4.88;;;29.60;99.90;;;;;;4975997;28;20030;-50
2022/09/01 11:14:58;;;;;;;22.58;5.03;;;29.70;99.90;;;;;;4975699;28;20030;-50
2022/09/01 11:17:37;;;;;;;28.52;5.97;;;29.70;99.90;;;;;;4975925;28;20023;-51
2022/09/01 11:20:35;;;;;;;31.05;5.85;;;29.70;99.90;;;;;;4975938;28;20479;-50
2022/09/01 11:23:04;;;;;;;40.55;13.73;;;29.70;99.90;;;;;;4975800;28;20087;-51
2022/09/01 11:25:32;;;;;;;38.05;7.40;;;29.80;99.90;;;;;;4975480;28;20506;-50
2022/09/01 11:28:05;;;;;;;45.65;9.18;;;29.80;99.90;;;;;;4975481;28;20379;-51
2022/09/01 11:30:31;;;;;;;50.95;11.75;;;29.80;99.90;;;;;;4975651;28;20062;-50
2022/09/01 11:33:17;;;;;;;51.92;15.27;;;29.90;99.90;;;;;;4974354;28;20085;-50
2022/09/01 11:35:45;;;;;;;48.47;14.52;;;29.90;99.90;;;;;;4975554;28;20039;-51
2022/09/01 11:38:15;;;;;;;44.30;12.98;;;30.00;99.90;;;;;;4975419;28;20027;-51
2022/09/01 11:40:42;;;;;;;38.13;11.85;;;30.00;99.90;;;;;;4975149;28;20037;-51
2022/09/01 11:43:12;;;;;;;35.00;11.65;;;30.00;99.90;;;;;;4975376;28;20531;-52
2022/09/01 11:46:07;;;;;;;40.25;12.65;;;30.00;99.90;;;;;;4975145;28;20479;-51
2022/09/01 11:48:33;;;;;;;36.30;10.90;;;30.00;99.90;;;;;;4973968;28;20031;-50
2022/09/01 11:51:02;;;;;;;30.70;8.43;;;30.00;99.90;;;;;;4975108;28;20030;-50
2022/09/01 11:53:28;;;;;;;43.10;10.32;;;30.00;99.90;;;;;;4975119;28;20106;-50
2022/09/01 11:55:56;;;;;;;35.63;7.53;;;30.00;99.90;;;;;;4974362;28;20022;-49
2022/09/01 11:58:29;;;;;;;34.10;7.38;;;30.00;99.90;;;;;;4974660;28;20037;-49
2022/09/01 12:00:56;;;;;;;32.65;6.72;;;30.00;99.90;;;;;;4974975;28;20518;-50
2022/09/01 12:03:26;;;;;;;34.42;8.90;;;30.10;99.90;;;;;;4975057;28;20039;-50
2022/09/01 12:06:02;;;;;;;31.85;7.65;;;30.00;99.90;;;;;;4974884;28;20074;-50
2022/09/01 12:08:33;;;;;;;38.40;6.93;;;30.00;99.90;;;;;;4975121;28;20019;-50
2022/09/01 12:11:29;;;;;;;25.40;5.75;;;30.10;99.90;;;;;;4974780;28;20437;-49
2022/09/01 12:14:01;;;;;;;43.35;6.95;;;30.10;99.90;;;;;;4972757;28;20487;-50
2022/09/01 12:16:28;;;;;;;34.13;6.88;;;30.10;99.90;;;;;;4974873;28;20121;-50
2022/09/01 12:18:57;;;;;;;34.08;7.85;;;30.10;99.90;;;;;;4974731;28;20031;-49
2022/09/01 12:21:32;;;;;;;44.10;7.80;;;30.20;99.90;;;;;;4974495;28;20023;-50
2022/09/01 12:24:19;;;;;;;37.03;8.15;;;30.30;99.90;;;;;;4973344;28;20057;-50
2022/09/01 12:26:47;;;;;;;26.40;7.18;;;30.30;99.90;;;;;;4974166;28;20142;-50
2022/09/01 12:29:14;;;;;;;35.60;8.10;;;30.30;99.90;;;;;;4974365;28;20034;-50
2022/09/01 12:31:42;;;;;;;36.22;10.48;;;30.30;99.90;;;;;;4974333;28;20031;-50
2022/09/01 12:34:26;;;;;;;48.72;11.32;;;30.30;99.90;;;;;;4974304;28;20027;-50
2022/09/01 12:37:07;;;;;;;32.20;9.13;;;30.30;99.90;;;;;;4974504;28;20027;-49
2022/09/01 12:39:38;;;;;;;32.42;8.88;;;30.30;99.90;;;;;;4974165;28;20058;-50
2022/09/01 12:42:18;;;;;;;36.70;8.93;;;30.40;99.90;;;;;;4974247;28;20031;-49
2022/09/01 12:45:06;;;;;;;43.13;9.35;;;30.40;99.90;;;;;;4974015;28;20043;-50
2022/09/01 12:47:32;;;;;;;38.72;7.35;;;30.40;99.90;;;;;;4973911;28;20031;-49
2022/09/01 12:50:19;;;;;;;28.65;6.80;;;30.40;99.90;;;;;;4974264;28;20022;-50
2022/09/01 12:52:51;;;;;;;32.63;5.82;;;30.40;99.90;;;;;;4969996;28;20113;-49
2022/09/01 12:55:20;;;;;;;21.08;4.88;;;30.50;99.90;;;;;;4973954;28;20035;-50
2022/09/01 12:57:58;;;;;;;31.92;6.85;;;30.50;99.90;;;;;;4973992;28;20034;-50
2022/09/01 13:00:30;;;;;;;43.70;7.38;;;30.50;99.90;;;;;;4972435;28;20542;-49